Time;durP1;ratioP1;P1;durP2;ratioP2;P2;SDS_P1;SDS_P2;PMS_P1;PMS_P2;Temp;Humidity;BMP_temperature;BMP_pressure;BME280_temperature;BME280_humidity;BME280_pressure;Samples;Min_cycle;Max_cycle;Signal;HPM_P1;HPM_P2
2024/02/04 00:00:30;;;;;;;8.35;1.50;;;9.50;99.90;;;;;;4978978;28;20031;-76
2024/02/04 00:02:56;;;;;;;7.45;1.10;;;9.40;99.90;;;;;;4980167;28;20176;-76
2024/02/04 00:05:22;;;;;;;10.00;1.88;;;9.40;99.90;;;;;;4978346;28;20038;-76
2024/02/04 00:07:48;;;;;;;9.85;1.10;;;9.30;99.90;;;;;;4980867;28;20135;-76
2024/02/04 00:10:15;;;;;;;9.45;1.90;;;9.30;99.90;;;;;;4977370;28;20046;-76
2024/02/04 00:12:41;;;;;;;7.32;1.88;;;9.30;99.90;;;;;;4979268;28;20031;-76
2024/02/04 00:15:08;;;;;;;7.40;1.00;;;9.30;99.90;;;;;;4977692;28;20022;-74
2024/02/04 00:17:34;;;;;;;7.45;1.17;;;9.40;99.90;;;;;;4979426;28;20759;-77
2024/02/04 00:20:01;;;;;;;6.63;1.58;;;9.30;99.90;;;;;;4977373;28;20035;-76
2024/02/04 00:22:27;;;;;;;8.40;1.85;;;9.30;99.90;;;;;;4977489;28;20461;-76
2024/02/04 00:24:53;;;;;;;12.07;3.33;;;9.30;99.90;;;;;;4977009;28;20442;-76
2024/02/04 00:27:19;;;;;;;4.88;1.50;;;9.30;99.90;;;;;;4975657;28;20145;-76
2024/02/04 00:29:45;;;;;;;6.50;1.20;;;9.30;99.90;;;;;;4976017;28;20658;-76
2024/02/04 00:32:11;;;;;;;6.60;1.30;;;9.20;99.90;;;;;;4979217;28;20066;-76
2024/02/04 00:34:36;;;;;;;8.20;2.10;;;9.20;99.90;;;;;;4975830;28;20121;-76
2024/02/04 00:37:02;;;;;;;5.22;1.30;;;9.10;99.90;;;;;;4978272;28;20041;-75
2024/02/04 00:39:28;;;;;;;5.10;0.93;;;9.10;99.90;;;;;;4975494;28;20034;-76
2024/02/04 00:41:54;;;;;;;12.85;1.65;;;9.10;99.90;;;;;;4979308;28;20105;-76
2024/02/04 00:44:20;;;;;;;6.95;2.10;;;9.10;99.90;;;;;;4977221;28;20718;-76
2024/02/04 00:46:45;;;;;;;7.25;0.93;;;9.00;99.90;;;;;;4978048;28;20037;-76
2024/02/04 00:49:11;;;;;;;8.10;1.40;;;9.00;99.90;;;;;;4975330;28;20027;-76
2024/02/04 00:51:37;;;;;;;5.70;1.10;;;9.00;99.90;;;;;;4978404;28;20469;-76
2024/02/04 00:54:03;;;;;;;6.30;1.45;;;9.00;99.90;;;;;;4959552;28;20080;-76
2024/02/04 00:56:28;;;;;;;6.70;1.10;;;9.00;99.90;;;;;;4980030;28;20037;-76
2024/02/04 00:58:54;;;;;;;5.85;0.90;;;8.90;99.90;;;;;;4976686;28;20038;-76
2024/02/04 01:01:20;;;;;;;6.50;1.52;;;8.90;99.90;;;;;;4977203;28;20041;-76
2024/02/04 01:03:46;;;;;;;6.45;1.40;;;9.00;99.90;;;;;;4977297;28;20038;-76
2024/02/04 01:06:12;;;;;;;6.50;1.50;;;8.90;99.90;;;;;;4976824;28;20418;-76
2024/02/04 01:08:38;;;;;;;3.92;1.10;;;8.90;99.90;;;;;;4977358;28;20034;-76
2024/02/04 01:11:07;;;;;;;7.97;1.40;;;8.90;99.90;;;;;;4991365;28;20042;-76
2024/02/04 01:13:33;;;;;;;8.55;1.20;;;8.90;99.90;;;;;;4977316;28;20035;-76
2024/02/04 01:15:58;;;;;;;5.40;1.38;;;8.80;99.90;;;;;;4976983;28;20034;-76
2024/02/04 01:18:24;;;;;;;7.90;1.08;;;8.80;99.90;;;;;;4976892;28;20497;-76
2024/02/04 01:20:50;;;;;;;6.57;1.30;;;8.70;99.90;;;;;;4977267;28;20034;-76
2024/02/04 01:23:19;;;;;;;6.43;1.33;;;8.60;99.90;;;;;;4976979;28;20081;-76
2024/02/04 01:25:45;;;;;;;4.05;1.30;;;8.60;99.90;;;;;;4977574;28;20027;-76
2024/02/04 01:28:11;;;;;;;10.48;1.25;;;8.50;99.90;;;;;;4975769;28;20126;-76
2024/02/04 01:30:37;;;;;;;6.30;1.20;;;8.50;99.90;;;;;;4976886;28;20619;-76
2024/02/04 01:33:03;;;;;;;3.65;0.77;;;8.40;99.90;;;;;;4976188;28;20505;-76
2024/02/04 01:35:29;;;;;;;9.18;1.30;;;8.40;99.90;;;;;;4976478;28;20030;-76
2024/02/04 01:37:55;;;;;;;7.55;1.48;;;8.30;99.90;;;;;;4976028;28;20050;-76
2024/02/04 01:40:21;;;;;;;6.10;0.90;;;8.30;99.90;;;;;;4977627;28;20034;-76
2024/02/04 01:42:46;;;;;;;5.13;1.00;;;8.30;99.90;;;;;;4977385;28;20035;-76
2024/02/04 01:45:12;;;;;;;9.45;1.40;;;8.30;99.90;;;;;;4978382;28;20414;-76
2024/02/04 01:47:38;;;;;;;7.82;1.48;;;8.40;99.90;;;;;;4976133;28;20085;-76
2024/02/04 01:50:05;;;;;;;5.20;0.93;;;8.50;99.90;;;;;;4980274;28;20045;-76
2024/02/04 01:52:33;;;;;;;8.85;1.27;;;8.50;99.90;;;;;;4976545;28;20046;-76
2024/02/04 01:55:01;;;;;;;6.38;1.38;;;8.60;99.90;;;;;;4976190;28;20433;-76
2024/02/04 01:57:27;;;;;;;8.13;1.40;;;8.60;99.90;;;;;;4975703;28;20027;-76
2024/02/04 01:59:56;;;;;;;6.38;1.65;;;8.60;99.90;;;;;;4975420;28;20053;-76
2024/02/04 02:02:22;;;;;;;9.68;1.50;;;8.60;99.90;;;;;;4974232;28;20041;-76
2024/02/04 02:04:48;;;;;;;8.00;1.30;;;8.70;99.90;;;;;;4977124;28;20038;-76
2024/02/04 02:07:16;;;;;;;4.85;1.30;;;8.70;99.90;;;;;;4976422;28;20122;-76
2024/02/04 02:09:42;;;;;;;4.70;1.00;;;8.70;99.90;;;;;;4976064;28;20027;-76
2024/02/04 02:12:17;;;;;;;3.67;1.10;;;8.80;99.90;;;;;;4976005;28;20756;-76
2024/02/04 02:14:49;;;;;;;3.92;1.10;;;8.80;99.90;;;;;;4988695;28;20087;-76
2024/02/04 02:17:20;;;;;;;3.55;1.13;;;8.70;99.90;;;;;;4976400;28;20045;-75
2024/02/04 02:20:07;;;;;;;9.70;1.48;;;8.60;99.90;;;;;;4971885;28;20121;-77
2024/02/04 02:23:03;;;;;;;11.55;1.50;;;8.50;99.90;;;;;;4973432;28;20034;-76
2024/02/04 02:25:30;;;;;;;8.40;1.70;;;8.50;99.90;;;;;;4976359;28;20137;-76
2024/02/04 02:27:56;;;;;;;8.07;2.28;;;8.50;99.90;;;;;;4973427;28;20045;-76
2024/02/04 02:30:22;;;;;;;4.57;1.45;;;8.50;99.90;;;;;;4977309;28;20027;-76
2024/02/04 02:32:49;;;;;;;8.15;1.52;;;8.40;99.90;;;;;;4974447;28;20034;-76
2024/02/04 02:35:16;;;;;;;6.00;1.63;;;8.30;99.90;;;;;;4977991;28;20037;-75
2024/02/04 02:37:45;;;;;;;8.55;1.65;;;8.30;99.90;;;;;;4971024;28;20045;-76
2024/02/04 02:40:26;;;;;;;4.80;1.50;;;8.30;99.90;;;;;;4978346;28;20589;-76
2024/02/04 02:42:54;;;;;;;6.78;2.13;;;8.20;99.90;;;;;;4977040;28;20084;-76
2024/02/04 02:45:22;;;;;;;6.60;1.60;;;8.10;99.90;;;;;;4980829;28;20398;-76
2024/02/04 02:47:49;;;;;;;5.18;1.30;;;8.20;99.90;;;;;;4978569;28;20034;-76
2024/02/04 02:50:16;;;;;;;4.65;1.77;;;8.20;99.90;;;;;;4978547;28;20371;-76
2024/02/04 02:52:42;;;;;;;5.18;1.27;;;8.30;99.90;;;;;;4977601;28;20023;-76
2024/02/04 02:55:08;;;;;;;4.13;1.45;;;8.40;99.90;;;;;;4980854;28;20031;-76
2024/02/04 02:57:34;;;;;;;4.20;1.45;;;8.40;99.90;;;;;;4978768;28;20027;-76
2024/02/04 02:59:59;;;;;;;8.43;2.38;;;8.40;99.90;;;;;;4979193;28;20038;-76
2024/02/04 03:02:25;;;;;;;4.90;1.67;;;8.40;99.90;;;;;;4976438;28;20035;-76
2024/02/04 03:04:51;;;;;;;10.15;1.95;;;8.40;99.90;;;;;;4977428;28;20054;-76
2024/02/04 03:07:16;;;;;;;2.83;1.33;;;8.40;99.90;;;;;;4978321;28;20063;-76
2024/02/04 03:09:43;;;;;;;5.18;1.27;;;8.40;99.90;;;;;;4980340;28;20578;-76
2024/02/04 03:12:09;;;;;;;8.27;1.67;;;8.30;99.90;;;;;;4977917;28;20068;-76
2024/02/04 03:14:35;;;;;;;4.40;1.55;;;8.40;99.90;;;;;;4978793;28;20027;-76
2024/02/04 03:17:01;;;;;;;4.40;1.90;;;8.40;99.90;;;;;;4978267;28;20022;-76
2024/02/04 03:19:27;;;;;;;5.50;2.25;;;8.50;99.90;;;;;;4980247;28;20053;-76
2024/02/04 03:21:52;;;;;;;6.07;1.67;;;8.50;99.90;;;;;;4979759;28;20138;-76
2024/02/04 03:24:18;;;;;;;7.07;1.50;;;8.50;99.90;;;;;;4979215;28;20034;-76
2024/02/04 03:26:44;;;;;;;10.38;2.33;;;8.60;99.90;;;;;;4978610;28;20038;-76
2024/02/04 03:29:10;;;;;;;3.50;1.85;;;8.60;99.90;;;;;;4976060;28;20046;-76
2024/02/04 03:31:36;;;;;;;3.25;1.48;;;8.60;99.90;;;;;;4978118;28;20027;-76
2024/02/04 03:34:02;;;;;;;6.03;1.90;;;8.50;99.90;;;;;;4978483;28;20034;-76
2024/02/04 03:36:28;;;;;;;4.32;1.70;;;8.50;99.90;;;;;;4978568;28;20039;-76
2024/02/04 03:38:54;;;;;;;3.55;1.70;;;8.30;99.90;;;;;;4977392;28;20089;-76
2024/02/04 03:41:20;;;;;;;6.32;1.35;;;8.30;99.90;;;;;;4968158;28;20055;-76
2024/02/04 03:43:46;;;;;;;7.68;2.33;;;8.30;99.90;;;;;;4973621;28;20019;-76
2024/02/04 03:46:14;;;;;;;3.33;1.45;;;8.20;99.90;;;;;;4977392;28;20141;-76
2024/02/04 03:48:40;;;;;;;4.45;1.52;;;8.20;99.90;;;;;;4978135;28;20109;-77
2024/02/04 03:51:06;;;;;;;5.88;1.73;;;8.10;99.90;;;;;;4977033;28;20046;-76
2024/02/04 03:53:32;;;;;;;6.70;1.63;;;8.00;99.90;;;;;;4978231;28;20132;-76
2024/02/04 03:55:58;;;;;;;8.95;1.52;;;8.00;99.90;;;;;;4976410;28;20387;-76
2024/02/04 03:58:29;;;;;;;5.55;1.58;;;8.00;99.90;;;;;;4975795;28;20038;-76
2024/02/04 04:00:58;;;;;;;9.55;1.30;;;7.90;99.90;;;;;;4976318;28;20058;-75
2024/02/04 04:03:24;;;;;;;3.92;1.42;;;7.90;99.90;;;;;;4978068;28;20567;-76
2024/02/04 04:05:50;;;;;;;4.30;1.10;;;7.90;99.90;;;;;;4976987;28;20030;-76
2024/02/04 04:08:17;;;;;;;4.07;1.02;;;7.80;99.90;;;;;;4979406;28;20382;-76
2024/02/04 04:10:43;;;;;;;3.83;1.15;;;7.80;99.90;;;;;;4979962;28;20060;-76
2024/02/04 04:13:09;;;;;;;6.47;1.60;;;7.80;99.90;;;;;;4979379;28;20034;-73
2024/02/04 04:15:35;;;;;;;4.90;1.17;;;7.70;99.90;;;;;;4967405;28;20137;-76
2024/02/04 04:18:01;;;;;;;5.22;1.70;;;7.70;99.90;;;;;;4968479;28;20066;-73
2024/02/04 04:20:26;;;;;;;5.55;1.42;;;7.70;99.90;;;;;;4955063;28;20023;-77
2024/02/04 04:22:52;;;;;;;4.55;1.30;;;7.60;99.90;;;;;;4976453;28;20185;-77
2024/02/04 04:25:18;;;;;;;7.38;1.45;;;7.60;99.90;;;;;;4978745;28;20038;-76
2024/02/04 04:27:44;;;;;;;8.07;1.35;;;7.60;99.90;;;;;;4977665;28;20746;-76
2024/02/04 04:30:10;;;;;;;2.95;0.90;;;7.50;99.90;;;;;;4976362;28;20173;-76
2024/02/04 04:32:36;;;;;;;5.05;1.45;;;7.50;99.90;;;;;;4978880;28;20398;-76
2024/02/04 04:35:02;;;;;;;3.35;1.00;;;7.60;99.90;;;;;;4979129;28;20026;-77
2024/02/04 04:37:27;;;;;;;5.85;1.23;;;7.50;99.90;;;;;;4976586;28;20450;-77
2024/02/04 04:39:53;;;;;;;5.25;1.15;;;7.50;99.90;;;;;;4977827;28;20880;-77
2024/02/04 04:42:19;;;;;;;6.25;1.95;;;7.50;99.90;;;;;;4975040;28;20030;-74
2024/02/04 04:44:45;;;;;;;6.38;1.25;;;7.50;99.90;;;;;;4975168;28;20031;-76
2024/02/04 04:47:11;;;;;;;5.35;1.33;;;7.50;99.90;;;;;;4978706;28;20113;-76
2024/02/04 04:49:36;;;;;;;10.52;1.88;;;7.50;99.90;;;;;;4979004;28;20026;-77
2024/02/04 04:52:02;;;;;;;5.88;1.80;;;7.60;99.90;;;;;;4974740;28;20031;-76
2024/02/04 04:54:28;;;;;;;2.33;1.10;;;7.50;99.90;;;;;;4977617;28;20031;-76
2024/02/04 04:56:54;;;;;;;4.45;1.35;;;7.40;99.90;;;;;;4974715;28;20368;-76
2024/02/04 04:59:20;;;;;;;6.93;1.63;;;7.50;99.90;;;;;;4976233;28;20448;-75
2024/02/04 05:01:48;;;;;;;5.65;1.58;;;7.50;99.90;;;;;;4975558;28;20048;-76
2024/02/04 05:04:16;;;;;;;7.03;1.73;;;7.50;99.90;;;;;;4977526;28;20034;-75
2024/02/04 05:06:42;;;;;;;5.45;1.40;;;7.50;99.90;;;;;;4977682;28;20863;-76
2024/02/04 05:09:08;;;;;;;5.60;1.38;;;7.50;99.90;;;;;;4975630;28;20123;-75
2024/02/04 05:11:34;;;;;;;8.85;1.60;;;7.50;99.90;;;;;;4977582;28;20061;-74
2024/02/04 05:14:00;;;;;;;7.47;1.85;;;7.50;99.90;;;;;;4976821;28;20065;-75
2024/02/04 05:16:26;;;;;;;8.60;1.60;;;7.50;99.90;;;;;;4975555;28;20027;-75
2024/02/04 05:18:51;;;;;;;7.65;1.70;;;7.50;99.90;;;;;;4974912;28;20077;-76
2024/02/04 05:21:17;;;;;;;2.92;1.42;;;7.50;99.90;;;;;;4974491;28;20171;-76
2024/02/04 05:23:43;;;;;;;6.32;1.80;;;7.50;99.90;;;;;;4978028;28;20057;-75
2024/02/04 05:26:09;;;;;;;9.05;2.00;;;7.40;99.90;;;;;;4973276;28;20031;-76
2024/02/04 05:28:34;;;;;;;3.58;1.58;;;7.40;99.90;;;;;;4977205;28;20033;-76
2024/02/04 05:31:02;;;;;;;5.53;1.60;;;7.40;99.90;;;;;;4976512;28;20039;-75
2024/02/04 05:33:28;;;;;;;7.57;1.98;;;7.40;99.90;;;;;;4977235;28;20035;-76
2024/02/04 05:35:54;;;;;;;6.20;1.90;;;7.30;99.90;;;;;;4975337;28;20469;-75
2024/02/04 05:38:22;;;;;;;4.22;1.45;;;7.30;99.90;;;;;;4969381;28;20613;-76
2024/02/04 05:40:47;;;;;;;3.22;2.10;;;7.40;99.90;;;;;;4976828;28;20133;-75
2024/02/04 05:43:13;;;;;;;4.90;1.83;;;7.40;99.90;;;;;;4976560;28;20026;-76
2024/02/04 05:45:42;;;;;;;8.63;1.60;;;7.50;99.90;;;;;;4976894;28;20042;-76
2024/02/04 05:48:08;;;;;;;4.25;1.90;;;7.50;99.90;;;;;;4976497;28;20053;-76
2024/02/04 05:50:34;;;;;;;6.85;2.10;;;7.60;99.90;;;;;;4973361;28;20035;-76
2024/02/04 05:53:00;;;;;;;5.40;2.30;;;7.50;99.90;;;;;;4977774;28;20469;-76
2024/02/04 05:55:26;;;;;;;7.03;2.05;;;7.60;99.90;;;;;;4973564;28;20026;-76
2024/02/04 05:57:52;;;;;;;3.63;2.58;;;7.60;99.90;;;;;;4974949;28;20293;-76
2024/02/04 06:00:18;;;;;;;10.38;2.40;;;7.60;99.90;;;;;;4973579;28;20584;-76
2024/02/04 06:02:43;;;;;;;9.80;3.53;;;7.70;99.90;;;;;;4974828;28;20828;-75
2024/02/04 06:05:10;;;;;;;10.35;3.90;;;7.70;99.90;;;;;;4975358;28;20042;-75
2024/02/04 06:07:36;;;;;;;4.60;2.67;;;7.70;99.90;;;;;;4975720;28;20807;-76
2024/02/04 06:10:03;;;;;;;7.15;3.72;;;7.70;99.90;;;;;;4975959;28;20031;-76
2024/02/04 06:12:29;;;;;;;10.32;3.38;;;7.70;99.90;;;;;;4974184;28;20042;-75
2024/02/04 06:14:55;;;;;;;6.53;2.63;;;7.80;99.90;;;;;;4979371;28;20062;-76
2024/02/04 06:17:21;;;;;;;8.80;3.13;;;7.80;99.90;;;;;;4979605;28;20054;-75
2024/02/04 06:19:47;;;;;;;11.95;4.57;;;7.80;99.90;;;;;;4980695;28;20022;-75
2024/02/04 06:22:15;;;;;;;7.72;3.20;;;7.90;99.90;;;;;;4979017;28;20566;-76
2024/02/04 06:24:40;;;;;;;12.40;5.05;;;7.90;99.90;;;;;;4976432;28;20034;-76
2024/02/04 06:27:10;;;;;;;7.38;3.35;;;7.90;99.90;;;;;;4976064;28;20046;-76
2024/02/04 06:29:37;;;;;;;10.52;4.35;;;8.00;99.90;;;;;;4976888;28;20038;-76
2024/02/04 06:32:03;;;;;;;18.90;7.15;;;8.10;99.90;;;;;;4978766;28;20490;-75
2024/02/04 06:34:29;;;;;;;20.25;4.60;;;8.10;99.90;;;;;;4979362;28;20061;-76
2024/02/04 06:36:54;;;;;;;33.40;11.95;;;8.10;99.90;;;;;;4978249;28;20054;-76
2024/02/04 06:39:20;;;;;;;36.65;13.82;;;8.10;99.90;;;;;;4980145;28;20046;-76
2024/02/04 06:41:46;;;;;;;13.27;4.70;;;7.90;99.90;;;;;;4976455;28;20026;-76
2024/02/04 06:44:12;;;;;;;27.35;9.40;;;7.90;99.90;;;;;;4976498;28;20750;-76
2024/02/04 06:46:37;;;;;;;14.68;5.53;;;8.00;99.90;;;;;;4978151;28;20072;-76
2024/02/04 06:49:03;;;;;;;15.23;7.20;;;8.00;99.90;;;;;;4976217;28;20026;-76
2024/02/04 06:51:29;;;;;;;15.77;5.07;;;8.10;99.90;;;;;;4975494;28;20027;-76
2024/02/04 06:53:55;;;;;;;11.02;4.80;;;8.10;99.90;;;;;;4979327;28;20050;-73
2024/02/04 06:56:22;;;;;;;9.77;4.07;;;8.20;99.90;;;;;;4978643;28;20054;-73
2024/02/04 06:58:48;;;;;;;10.20;4.47;;;8.20;99.90;;;;;;4978758;28;20034;-73
2024/02/04 07:01:14;;;;;;;11.70;5.20;;;8.30;99.90;;;;;;4977353;28;20101;-73
2024/02/04 07:03:40;;;;;;;16.77;7.00;;;8.40;99.90;;;;;;4978534;28;20108;-73
2024/02/04 07:06:07;;;;;;;19.20;6.35;;;8.30;99.90;;;;;;4977567;28;20082;-73
2024/02/04 07:08:33;;;;;;;9.35;4.32;;;8.20;99.90;;;;;;4979024;28;20038;-72
2024/02/04 07:10:58;;;;;;;15.82;6.75;;;8.30;99.90;;;;;;4972343;28;20079;-74
2024/02/04 07:13:24;;;;;;;14.50;5.88;;;8.30;99.90;;;;;;4979019;28;20027;-73
2024/02/04 07:15:50;;;;;;;7.60;4.43;;;8.40;99.90;;;;;;4976787;28;20580;-69
2024/02/04 07:18:17;;;;;;;19.35;7.25;;;8.40;99.90;;;;;;4972184;28;20030;-75
2024/02/04 07:20:43;;;;;;;16.10;5.40;;;8.30;99.90;;;;;;4977804;28;20030;-75
2024/02/04 07:23:09;;;;;;;13.10;6.00;;;8.40;99.90;;;;;;4977158;28;20390;-74
2024/02/04 07:25:35;;;;;;;9.63;4.78;;;8.30;99.90;;;;;;4967994;28;20039;-74
2024/02/04 07:28:02;;;;;;;12.13;4.75;;;8.30;99.90;;;;;;4972993;28;20033;-74
2024/02/04 07:30:28;;;;;;;23.65;10.88;;;8.30;99.90;;;;;;4976117;28;20049;-78
2024/02/04 07:32:53;;;;;;;9.18;6.22;;;8.30;99.90;;;;;;4970186;28;20034;-75
2024/02/04 07:35:19;;;;;;;9.77;3.50;;;8.30;99.90;;;;;;4949452;28;20031;-75
2024/02/04 07:37:45;;;;;;;5.72;2.95;;;8.40;99.90;;;;;;4959516;28;20047;-77
2024/02/04 07:40:11;;;;;;;16.98;6.35;;;8.40;99.90;;;;;;4969949;28;20557;-76
2024/02/04 07:42:37;;;;;;;9.05;3.80;;;8.40;99.90;;;;;;4976582;28;20034;-75
2024/02/04 07:45:08;;;;;;;6.47;2.75;;;8.40;99.90;;;;;;4977480;28;20120;-76
2024/02/04 07:47:35;;;;;;;7.22;3.25;;;8.50;99.90;;;;;;4977469;28;20486;-75
2024/02/04 07:50:00;;;;;;;9.18;3.63;;;8.50;99.90;;;;;;4975007;28;20038;-76
2024/02/04 07:52:26;;;;;;;10.38;4.30;;;8.50;99.90;;;;;;4975753;28;20453;-74
2024/02/04 07:54:52;;;;;;;12.43;4.50;;;8.50;99.90;;;;;;4976425;28;20030;-74
2024/02/04 07:57:18;;;;;;;8.15;3.95;;;8.50;99.90;;;;;;4976455;28;20030;-71
2024/02/04 07:59:43;;;;;;;6.30;2.63;;;8.50;99.90;;;;;;4977351;28;20673;-76
2024/02/04 08:02:09;;;;;;;6.03;2.72;;;8.50;99.90;;;;;;4977180;28;20536;-77
2024/02/04 08:04:35;;;;;;;7.35;2.80;;;8.50;99.90;;;;;;4974243;28;20493;-77
2024/02/04 08:07:01;;;;;;;8.73;3.20;;;8.60;99.90;;;;;;4976720;28;20061;-77
2024/02/04 08:09:27;;;;;;;8.18;2.70;;;8.60;99.90;;;;;;4976236;28;20031;-78
2024/02/04 08:11:53;;;;;;;9.93;5.60;;;8.70;99.90;;;;;;4974266;28;20037;-76
2024/02/04 08:14:19;;;;;;;10.07;3.78;;;8.70;99.90;;;;;;4973146;28;20050;-78
2024/02/04 08:16:47;;;;;;;13.25;4.68;;;8.80;99.90;;;;;;4977317;28;20034;-76
2024/02/04 08:19:13;;;;;;;5.47;2.40;;;8.80;99.90;;;;;;4977083;28;20042;-76
2024/02/04 08:21:39;;;;;;;10.85;3.50;;;8.80;99.90;;;;;;4975255;28;20027;-76
2024/02/04 08:24:05;;;;;;;13.18;3.08;;;8.80;99.90;;;;;;4968121;28;20501;-78
2024/02/04 08:26:31;;;;;;;9.10;2.53;;;8.80;99.90;;;;;;4969814;28;20042;-78
2024/02/04 08:28:57;;;;;;;16.08;5.22;;;8.90;99.90;;;;;;4973095;28;20031;-77
2024/02/04 08:31:22;;;;;;;8.25;2.95;;;9.00;99.90;;;;;;4977251;28;20038;-76
2024/02/04 08:33:48;;;;;;;10.60;3.42;;;9.10;99.90;;;;;;4978438;28;20133;-78
2024/02/04 08:36:14;;;;;;;8.25;3.03;;;9.10;99.90;;;;;;4976314;28;20118;-76
2024/02/04 08:38:40;;;;;;;11.57;3.25;;;9.10;99.90;;;;;;4973778;28;20109;-76
2024/02/04 08:41:06;;;;;;;12.45;6.57;;;9.20;99.90;;;;;;4973907;28;20101;-76
2024/02/04 08:43:32;;;;;;;10.40;4.50;;;9.20;99.90;;;;;;4977731;28;20932;-76
2024/02/04 08:45:58;;;;;;;11.52;5.18;;;9.20;99.90;;;;;;4974699;28;20058;-76
2024/02/04 08:48:23;;;;;;;13.68;3.60;;;9.30;99.90;;;;;;4975579;28;20039;-70
2024/02/04 08:50:49;;;;;;;16.85;4.50;;;9.30;99.90;;;;;;4974482;28;20042;-76
2024/02/04 08:53:15;;;;;;;11.15;2.90;;;9.20;99.90;;;;;;4977822;28;20030;-76
2024/02/04 08:55:41;;;;;;;15.98;3.05;;;9.30;99.90;;;;;;4972278;28;20077;-76
2024/02/04 08:58:06;;;;;;;16.42;4.07;;;9.30;99.90;;;;;;4974987;28;20479;-76
2024/02/04 09:00:32;;;;;;;10.95;4.50;;;9.30;99.90;;;;;;4972807;28;20045;-76
2024/02/04 09:02:58;;;;;;;9.45;2.22;;;9.20;99.90;;;;;;4978446;28;20038;-77
2024/02/04 09:05:24;;;;;;;13.27;3.28;;;9.20;99.90;;;;;;4976797;28;20030;-76
2024/02/04 09:07:50;;;;;;;9.38;3.30;;;9.30;99.90;;;;;;4978927;28;20030;-77
2024/02/04 09:10:16;;;;;;;6.38;1.80;;;9.40;99.90;;;;;;4978188;28;20509;-77
2024/02/04 09:12:41;;;;;;;3.90;1.20;;;9.50;99.90;;;;;;4976431;28;20186;-76
2024/02/04 09:15:08;;;;;;;8.43;1.60;;;9.60;99.90;;;;;;4977957;28;20472;-76
2024/02/04 09:17:34;;;;;;;7.20;1.17;;;9.60;99.90;;;;;;4979329;28;20030;-76
2024/02/04 09:20:00;;;;;;;6.05;1.50;;;9.70;99.90;;;;;;4976742;28;20394;-76
2024/02/04 09:22:26;;;;;;;8.35;2.05;;;9.80;99.90;;;;;;4978971;28;21176;-76
2024/02/04 09:24:52;;;;;;;4.93;1.20;;;9.90;99.90;;;;;;4967734;28;20722;-72
2024/02/04 09:27:17;;;;;;;8.38;1.95;;;9.90;99.90;;;;;;4974754;28;20031;-75
2024/02/04 09:29:43;;;;;;;8.85;1.95;;;10.00;99.90;;;;;;4974435;28;20042;-75
2024/02/04 09:32:09;;;;;;;8.80;1.35;;;10.00;99.90;;;;;;4972284;28;20034;-75
2024/02/04 09:34:35;;;;;;;2.13;0.90;;;10.20;99.90;;;;;;4972398;28;20076;-75
2024/02/04 09:37:01;;;;;;;7.40;1.13;;;10.30;99.90;;;;;;4975650;28;20038;-75
2024/02/04 09:39:27;;;;;;;6.90;1.30;;;10.30;99.90;;;;;;4975115;28;20050;-74
2024/02/04 09:41:54;;;;;;;5.30;1.38;;;10.40;99.90;;;;;;4971886;28;20030;-77
2024/02/04 09:44:21;;;;;;;7.68;1.23;;;10.50;99.90;;;;;;4971825;28;20039;-76
2024/02/04 09:46:47;;;;;;;6.68;1.05;;;10.50;99.90;;;;;;4966496;28;20045;-75
2024/02/04 09:49:13;;;;;;;3.72;1.08;;;10.60;99.90;;;;;;4970546;28;20406;-74
2024/02/04 09:51:40;;;;;;;7.85;1.40;;;10.60;99.90;;;;;;4972048;28;20027;-74
2024/02/04 09:54:09;;;;;;;7.50;1.30;;;10.60;99.90;;;;;;4974058;28;20662;-74
2024/02/04 09:56:37;;;;;;;5.18;1.25;;;10.60;99.90;;;;;;4959060;28;20564;-75
2024/02/04 09:59:02;;;;;;;4.03;0.95;;;10.60;99.90;;;;;;4961926;28;20105;-74
2024/02/04 10:01:29;;;;;;;3.42;1.10;;;10.70;99.90;;;;;;4956953;28;20494;-74
2024/02/04 10:03:55;;;;;;;1.23;0.60;;;10.80;99.90;;;;;;4976155;28;20073;-77
2024/02/04 10:06:20;;;;;;;3.30;0.90;;;10.90;99.90;;;;;;4973973;28;20030;-78
2024/02/04 10:08:47;;;;;;;5.55;1.00;;;10.80;99.90;;;;;;4977049;28;20117;-73
2024/02/04 10:11:13;;;;;;;6.38;1.20;;;10.90;99.90;;;;;;4973388;28;20023;-76
2024/02/04 10:13:46;;;;;;;6.57;1.20;;;11.00;99.90;;;;;;4974541;28;20057;-71
2024/02/04 10:16:13;;;;;;;7.47;1.80;;;11.10;99.90;;;;;;4975772;28;20794;-71
2024/02/04 10:18:46;;;;;;;3.55;1.50;;;11.20;99.90;;;;;;4973430;28;20038;-68
2024/02/04 10:21:22;;;;;;;3.35;1.10;;;11.20;99.90;;;;;;4976351;28;20026;-70
2024/02/04 10:23:49;;;;;;;3.30;0.95;;;11.10;99.90;;;;;;4962377;28;20066;-70
2024/02/04 10:26:16;;;;;;;5.72;1.20;;;11.30;99.90;;;;;;4975572;28;20931;-70
2024/02/04 10:28:42;;;;;;;5.35;1.10;;;11.30;99.90;;;;;;4974900;28;20045;-70
2024/02/04 10:31:11;;;;;;;5.13;1.63;;;11.30;99.90;;;;;;4975998;28;20038;-70
2024/02/04 10:33:37;;;;;;;5.72;0.95;;;11.10;99.90;;;;;;4971238;28;20030;-70
2024/02/04 10:36:04;;;;;;;2.20;0.57;;;11.10;99.90;;;;;;4974961;28;20526;-70
2024/02/04 10:38:30;;;;;;;2.08;0.90;;;11.10;99.90;;;;;;4973396;28;20113;-70
2024/02/04 10:41:00;;;;;;;6.13;1.10;;;10.90;99.90;;;;;;4971398;28;20041;-73
2024/02/04 10:43:36;;;;;;;5.03;1.20;;;10.80;99.90;;;;;;4974855;28;20406;-70
2024/02/04 10:46:11;;;;;;;5.65;1.50;;;10.90;99.90;;;;;;4972818;28;20955;-70
2024/02/04 10:48:44;;;;;;;7.72;1.20;;;10.90;99.90;;;;;;4971940;28;20050;-70
2024/02/04 10:51:15;;;;;;;10.73;2.05;;;11.00;99.90;;;;;;4974119;28;20760;-71
2024/02/04 10:53:45;;;;;;;2.10;1.02;;;11.10;99.90;;;;;;4971363;28;20101;-69
2024/02/04 10:56:21;;;;;;;4.40;1.33;;;11.10;99.90;;;;;;4972857;28;20080;-68
2024/02/04 10:58:48;;;;;;;3.70;0.90;;;11.20;99.90;;;;;;4970166;28;20509;-74
2024/02/04 11:01:14;;;;;;;2.92;1.08;;;11.20;99.90;;;;;;4974936;28;20117;-74
2024/02/04 11:03:41;;;;;;;3.58;0.95;;;11.00;99.90;;;;;;4974471;28;20624;-74
2024/02/04 11:06:10;;;;;;;4.53;1.15;;;11.00;99.90;;;;;;4976206;28;20030;-74
2024/02/04 11:08:36;;;;;;;4.32;0.90;;;11.00;99.90;;;;;;4977108;28;20516;-75
2024/02/04 11:11:02;;;;;;;4.07;1.13;;;11.00;99.90;;;;;;4974665;28;20097;-74
2024/02/04 11:13:29;;;;;;;3.92;0.90;;;10.70;99.90;;;;;;4975070;28;20034;-74
2024/02/04 11:15:58;;;;;;;5.72;1.00;;;10.80;99.90;;;;;;4975909;28;20037;-74
2024/02/04 11:18:39;;;;;;;1.13;0.57;;;10.60;99.90;;;;;;4973580;28;20035;-74
2024/02/04 11:21:37;;;;;;;6.03;0.80;;;10.60;99.90;;;;;;4976158;28;20112;-73
2024/02/04 11:24:32;;;;;;;9.35;2.17;;;10.60;99.90;;;;;;4972932;28;20073;-75
2024/02/04 11:26:58;;;;;;;3.13;0.95;;;10.60;99.90;;;;;;4970861;28;20473;-74
2024/02/04 11:29:25;;;;;;;2.63;0.82;;;10.70;99.90;;;;;;4975587;28;20070;-74
2024/02/04 11:31:51;;;;;;;6.32;0.70;;;10.70;99.90;;;;;;4976544;28;20085;-74
2024/02/04 11:34:17;;;;;;;3.75;0.90;;;10.60;99.90;;;;;;4977334;28;20031;-74
2024/02/04 11:36:44;;;;;;;8.90;1.02;;;10.60;99.90;;;;;;4976056;28;20475;-75
2024/02/04 11:39:23;;;;;;;4.43;2.17;;;10.70;99.90;;;;;;4971255;28;20035;-74
2024/02/04 11:41:49;;;;;;;4.45;0.82;;;10.70;99.90;;;;;;4974588;28;20046;-74
2024/02/04 11:44:23;;;;;;;7.03;0.98;;;10.70;99.90;;;;;;4975090;28;20622;-74
2024/02/04 11:46:49;;;;;;;3.00;0.73;;;10.70;99.90;;;;;;4975073;28;20521;-74
2024/02/04 11:49:21;;;;;;;2.42;0.80;;;10.70;99.90;;;;;;4974803;28;20030;-74
2024/02/04 11:51:50;;;;;;;2.28;0.82;;;10.70;99.90;;;;;;4972839;28;20030;-74
2024/02/04 11:54:19;;;;;;;3.00;0.77;;;10.70;99.90;;;;;;4976457;28;20121;-74
2024/02/04 11:56:52;;;;;;;4.70;0.77;;;10.70;99.90;;;;;;4969018;28;20022;-74
2024/02/04 11:59:25;;;;;;;7.15;1.23;;;10.70;99.90;;;;;;4977094;28;20037;-73
2024/02/04 12:01:55;;;;;;;4.28;0.88;;;10.60;99.90;;;;;;4974055;28;20042;-74
2024/02/04 12:04:22;;;;;;;5.68;0.80;;;10.50;99.90;;;;;;4973838;28;20027;-74
2024/02/04 12:06:48;;;;;;;1.80;0.90;;;10.50;99.90;;;;;;4975916;28;20034;-74
2024/02/04 12:09:22;;;;;;;6.13;1.25;;;10.60;99.90;;;;;;4975496;28;20033;-75
2024/02/04 12:11:48;;;;;;;4.13;1.02;;;10.70;99.90;;;;;;4976707;28;20513;-74
2024/02/04 12:14:15;;;;;;;5.70;1.02;;;10.80;99.90;;;;;;4973512;28;20428;-74
2024/02/04 12:16:41;;;;;;;3.20;0.90;;;10.70;99.90;;;;;;4977099;28;20073;-74
2024/02/04 12:19:07;;;;;;;4.45;0.75;;;10.70;99.90;;;;;;4976061;28;20038;-74
2024/02/04 12:21:34;;;;;;;7.32;0.93;;;10.70;99.90;;;;;;4976640;28;20592;-74
2024/02/04 12:24:00;;;;;;;4.88;1.20;;;10.70;99.90;;;;;;4973411;28;20565;-75
2024/02/04 12:26:26;;;;;;;3.47;0.70;;;10.70;99.90;;;;;;4976614;28;20545;-75
2024/02/04 12:28:52;;;;;;;3.97;1.20;;;10.70;99.90;;;;;;4960508;28;20670;-75
2024/02/04 12:31:19;;;;;;;5.22;1.13;;;10.70;99.90;;;;;;4971756;28;20042;-75
2024/02/04 12:33:55;;;;;;;3.50;0.95;;;10.70;99.90;;;;;;4972019;28;20035;-75
2024/02/04 12:36:21;;;;;;;4.57;0.75;;;10.60;99.90;;;;;;4973847;28;20035;-71
2024/02/04 12:38:58;;;;;;;7.38;1.02;;;10.60;99.90;;;;;;4972201;28;20057;-71
2024/02/04 12:41:25;;;;;;;3.97;1.05;;;10.60;99.90;;;;;;4973011;28;20081;-75
2024/02/04 12:43:56;;;;;;;4.13;1.30;;;10.60;99.90;;;;;;4972340;28;20038;-76
2024/02/04 12:46:22;;;;;;;6.38;0.93;;;10.60;99.90;;;;;;4977237;28;20030;-76
2024/02/04 12:48:55;;;;;;;4.65;0.90;;;10.70;99.90;;;;;;4972650;28;20034;-72
2024/02/04 12:51:28;;;;;;;7.75;1.13;;;10.80;99.90;;;;;;4975399;28;20045;-72